createdAt,value
2023-01-03T00:04:49.439Z,7.60878
2023-01-03T00:09:51.002Z,7.63883
2023-01-03T00:14:51.959Z,7.60846
2023-01-03T00:19:52.933Z,7.55678
2023-01-03T00:24:53.939Z,7.51963
2023-01-03T00:29:54.883Z,7.49637
2023-01-03T00:34:59.010Z,7.43984
2023-01-03T00:40:04.129Z,7.45954
2023-01-03T00:45:05.168Z,7.37136
2023-01-03T00:50:06.117Z,7.36425
2023-01-03T00:55:07.032Z,7.32581
2023-01-03T01:00:08.037Z,7.29254
2023-01-03T01:05:08.974Z,7.26023
2023-01-03T01:10:09.953Z,7.16009
2023-01-03T01:15:10.821Z,7.17625
2023-01-03T01:20:11.780Z,7.09678
2023-01-03T01:25:12.716Z,6.97209
2023-01-03T01:30:13.622Z,6.91524
2023-01-03T01:35:14.517Z,6.87971
2023-01-03T01:40:15.519Z,6.85128
2023-01-03T01:45:16.383Z,6.80929
2023-01-03T01:50:17.332Z,6.76277
2023-01-03T01:55:18.298Z,6.66715
2023-01-03T02:00:19.291Z,6.65552
2023-01-03T02:05:20.231Z,6.66005
2023-01-03T02:10:21.314Z,6.78151
2023-01-03T02:15:22.229Z,6.65682
2023-01-03T02:20:23.168Z,6.70689
2023-01-03T02:25:24.172Z,6.80541
2023-01-03T02:30:25.158Z,6.91718
2023-01-03T02:35:26.240Z,6.9007
2023-01-03T02:40:27.466Z,6.80412
2023-01-03T02:45:28.370Z,6.66457
2023-01-03T02:50:29.306Z,6.48787
2023-01-03T02:55:30.247Z,6.41487
2023-01-03T03:00:31.203Z,6.39775
2023-01-03T03:05:32.112Z,6.2792
2023-01-03T03:10:33.146Z,6.20232
2023-01-03T03:15:34.054Z,6.1319
2023-01-03T03:20:35.062Z,6.11769
2023-01-03T03:25:36.197Z,6.03144
2023-01-03T03:30:37.201Z,6.00818
2023-01-03T03:35:38.147Z,5.95391
2023-01-03T03:40:39.094Z,5.86669
2023-01-03T03:45:40.054Z,5.69872
2023-01-03T03:50:40.984Z,5.60343
2023-01-03T03:55:41.912Z,5.54916
2023-01-03T04:00:42.808Z,5.57823
2023-01-03T04:05:43.732Z,5.49199
2023-01-03T04:10:44.675Z,5.42835
2023-01-03T04:15:45.599Z,5.47551
2023-01-03T04:20:46.537Z,5.59923
2023-01-03T04:25:47.511Z,5.5595
2023-01-03T04:30:48.408Z,5.51266
2023-01-03T04:35:49.317Z,5.31109
2023-01-03T04:40:50.331Z,5.20514
2023-01-03T04:45:51.310Z,5.07658
2023-01-03T04:50:52.298Z,4.95577
2023-01-03T04:55:53.220Z,4.95965
2023-01-03T05:00:54.232Z,4.90635
2023-01-03T05:05:55.236Z,4.92411
2023-01-03T05:10:56.159Z,4.94511
2023-01-03T05:15:57.097Z,4.99841
2023-01-03T05:20:58.037Z,4.96546
2023-01-03T05:25:58.935Z,4.80266
2023-01-03T05:30:59.899Z,4.71803
2023-01-03T05:36:00.798Z,4.68379
2023-01-03T05:41:01.890Z,4.63727
2023-01-03T05:46:02.962Z,4.59076
2023-01-03T05:51:04.066Z,4.57073
2023-01-03T05:56:04.982Z,4.54424
2023-01-03T06:01:05.982Z,4.43118
2023-01-03T06:06:06.987Z,4.29196
2023-01-03T06:11:07.975Z,4.16308
2023-01-03T06:16:09.105Z,4.07263
2023-01-03T06:21:10.206Z,3.97282
2023-01-03T06:26:11.241Z,3.97056
2023-01-03T06:31:12.323Z,3.988
2023-01-03T06:36:13.348Z,3.9725
2023-01-03T06:41:14.367Z,3.98542
2023-01-03T06:46:15.480Z,3.96313
2023-01-03T06:51:16.461Z,3.99026
2023-01-03T06:56:17.364Z,3.94698
2023-01-03T07:01:18.430Z,3.87753
2023-01-03T07:06:19.383Z,3.80582
2023-01-03T07:11:20.298Z,3.727
2023-01-03T07:16:21.309Z,3.6666
2023-01-03T07:21:22.261Z,3.61459
2023-01-03T07:26:23.189Z,3.54192
2023-01-03T07:31:24.246Z,3.52189
2023-01-03T07:36:25.223Z,3.49863
2023-01-03T07:41:26.446Z,3.51511
2023-01-03T07:46:27.721Z,3.5403
2023-01-03T07:51:28.636Z,3.56388
2023-01-03T07:56:29.557Z,3.52867
2023-01-03T08:01:30.759Z,3.6062
2023-01-03T08:06:31.907Z,3.62073
2023-01-03T08:11:32.909Z,3.63236
2023-01-03T08:16:33.856Z,3.62202
2023-01-03T08:21:34.789Z,3.56711
2023-01-03T08:26:35.801Z,3.60975
2023-01-03T08:31:36.775Z,3.64916
2023-01-03T08:36:37.675Z,3.69406
2023-01-03T08:41:38.661Z,3.74768
2023-01-03T08:46:39.654Z,3.74897
2023-01-03T08:51:40.672Z,3.9641
2023-01-03T08:56:41.683Z,3.87818
2023-01-03T09:01:42.810Z,3.93309
2023-01-03T09:06:43.961Z,4.08685
2023-01-03T09:11:44.989Z,4.17858
2023-01-03T09:16:49.086Z,4.30941
2023-01-03T09:21:50.642Z,4.46413
2023-01-03T09:26:54.838Z,4.56653
2023-01-03T09:31:56.264Z,4.74064
2023-01-03T09:36:57.308Z,4.91313
2023-01-03T09:41:58.340Z,4.97095
2023-01-03T09:46:59.360Z,4.96675
2023-01-03T09:52:00.392Z,4.98226
2023-01-03T09:57:01.428Z,5.05041
2023-01-03T10:02:02.496Z,5.25198
2023-01-03T10:07:03.629Z,5.55498
2023-01-03T10:12:04.617Z,5.70712
2023-01-03T10:17:05.692Z,5.82987
2023-01-03T10:22:06.699Z,6.07763
2023-01-03T10:27:07.642Z,6.37934
2023-01-03T10:32:08.768Z,6.41745
2023-01-03T10:37:09.748Z,6.55409
2023-01-03T10:42:10.709Z,6.84966
2023-01-03T10:47:11.636Z,6.9343
2023-01-03T10:52:12.704Z,6.9049
2023-01-03T10:57:13.892Z,6.8348
2023-01-03T11:02:15.187Z,6.99858
2023-01-03T11:07:16.558Z,6.9947
2023-01-03T11:12:17.611Z,7.0522
2023-01-03T11:17:18.573Z,7.04962
2023-01-03T11:22:19.517Z,7.08257
2023-01-03T11:27:20.477Z,8.0087
2023-01-03T11:32:21.832Z,8.66575
2023-01-03T11:37:22.979Z,7.86236
2023-01-03T11:42:23.983Z,7.26863
2023-01-03T11:47:24.937Z,7.17334
2023-01-03T11:52:26.040Z,8.70742
2023-01-03T11:57:27.289Z,9.78442
2023-01-03T12:02:28.555Z,8.9904
2023-01-03T12:07:48.551Z,8.50229
2023-01-03T12:12:51.164Z,8.1153
2023-01-03T12:17:52.140Z,7.70569
2023-01-03T12:22:53.107Z,7.31999
2023-01-03T12:27:54.171Z,7.04962
2023-01-03T12:32:55.301Z,7.069
2023-01-03T12:37:56.245Z,7.00472
2023-01-03T12:42:57.292Z,6.81219
2023-01-03T12:47:58.267Z,9.71109
2023-01-03T12:52:59.215Z,14.13391
2023-01-03T12:58:00.302Z,15.02102
2023-01-03T13:03:01.650Z,14.86273
2023-01-03T13:08:02.846Z,11.85771
2023-01-03T13:13:03.904Z,10.04318
2023-01-03T13:18:05.005Z,9.22363
2023-01-03T13:23:05.959Z,8.7478
2023-01-03T13:28:06.860Z,8.34239
2023-01-03T13:33:07.804Z,8.21705
2023-01-03T13:38:08.781Z,7.85138
2023-01-03T13:43:09.755Z,7.54547
2023-01-03T13:48:10.719Z,7.30707
2023-01-03T13:53:11.679Z,7.02862
2023-01-03T13:58:12.759Z,6.80218
2023-01-03T14:03:13.903Z,6.6875
2023-01-03T14:08:14.971Z,6.56637
2023-01-03T14:13:16.099Z,6.40195
2023-01-03T14:18:17.094Z,6.27177
2023-01-03T14:23:57.782Z,6.02853
2023-01-03T14:29:00.490Z,5.91127
2023-01-03T14:34:01.497Z,5.82922
2023-01-03T14:39:02.604Z,5.78852
2023-01-03T14:44:03.573Z,5.77302
2023-01-03T14:49:04.550Z,5.66093
2023-01-03T14:54:05.528Z,5.50394
2023-01-03T14:59:06.471Z,5.43449
2023-01-03T15:04:07.428Z,5.36472
2023-01-03T15:09:08.372Z,5.27136
2023-01-03T15:14:09.399Z,5.21225
2023-01-03T15:19:10.392Z,5.23938
2023-01-03T15:24:11.330Z,5.18738
2023-01-03T15:29:12.371Z,5.06043
2023-01-03T15:34:13.422Z,5.03362
2023-01-03T15:39:14.413Z,4.99905
2023-01-03T15:44:15.403Z,4.9338
2023-01-03T15:49:16.471Z,4.81493
2023-01-03T15:54:17.459Z,4.64632
2023-01-03T15:59:18.661Z,4.47931
2023-01-03T16:04:19.745Z,4.36852
2023-01-03T16:09:20.725Z,4.29196
2023-01-03T16:14:21.735Z,4.17697
2023-01-03T16:19:22.703Z,4.13659
2023-01-03T16:24:23.647Z,4.10364
2023-01-03T16:29:24.605Z,3.99317
2023-01-03T16:34:30.224Z,3.90337
2023-01-03T16:39:34.478Z,3.79516
2023-01-03T16:44:35.421Z,3.66757
2023-01-03T16:49:36.347Z,3.58003
2023-01-03T16:54:37.287Z,3.45502
2023-01-03T16:59:38.331Z,3.37718
2023-01-03T17:04:39.304Z,3.27187
2023-01-03T17:09:40.357Z,3.1698
2023-01-03T17:14:41.354Z,3.13201
2023-01-03T17:20:03.532Z,3.08517
2023-01-03T17:25:05.545Z,3.01895
2023-01-03T17:30:06.770Z,2.9185
2023-01-03T17:35:07.762Z,2.87134
2023-01-03T17:40:08.732Z,2.89492
2023-01-03T17:45:09.744Z,2.90041
2023-01-03T17:50:10.729Z,2.86617
2023-01-03T17:55:11.648Z,2.8245
2023-01-03T18:00:12.622Z,2.86907
2023-01-03T18:05:17.548Z,2.90913
2023-01-03T18:10:22.146Z,2.84356
2023-01-03T18:15:23.127Z,2.74471
2023-01-03T18:20:24.072Z,2.7066
2023-01-03T18:25:25.079Z,2.66913
2023-01-03T18:30:26.050Z,2.60679
2023-01-03T18:35:32.524Z,2.62035
2023-01-03T18:40:38.388Z,2.65912
2023-01-03T18:45:39.394Z,2.55511
2023-01-03T18:50:40.507Z,2.55898
2023-01-03T18:55:41.661Z,2.50859
2023-01-03T19:00:42.643Z,2.50278
2023-01-03T19:05:43.680Z,2.36324
2023-01-03T19:10:44.673Z,2.31672
2023-01-03T19:15:46.103Z,2.35451
2023-01-03T19:20:47.327Z,2.3122
2023-01-03T19:25:48.314Z,2.31026
2023-01-03T19:30:49.307Z,2.33029
2023-01-03T19:35:50.254Z,2.29831
2023-01-03T19:40:51.154Z,2.26827
2023-01-03T19:45:52.120Z,2.28151
2023-01-03T19:50:53.221Z,2.35774
2023-01-03T19:55:54.341Z,2.41847
2023-01-03T20:00:55.279Z,2.5031
2023-01-03T20:05:56.223Z,2.48404
2023-01-03T20:10:57.182Z,2.40135
2023-01-03T20:15:58.207Z,2.42267
2023-01-03T20:20:59.296Z,2.57449
2023-01-03T20:26:00.659Z,2.67107
2023-01-03T20:31:01.801Z,2.72921
2023-01-03T20:36:22.580Z,2.70757
2023-01-03T20:41:24.728Z,2.77798
2023-01-03T20:46:25.726Z,2.81901
2023-01-03T20:51:27.192Z,2.79349
2023-01-03T20:56:28.465Z,2.70821
2023-01-03T21:01:29.549Z,2.63327
2023-01-03T21:06:30.637Z,2.66654
2023-01-03T21:11:31.582Z,2.74601
2023-01-03T21:16:32.738Z,2.78541
2023-01-03T21:21:33.828Z,2.81965
2023-01-03T21:26:34.801Z,2.83807
2023-01-03T21:31:36.135Z,2.91365
2023-01-03T21:36:37.197Z,2.98245
2023-01-03T21:41:38.157Z,3.01055
2023-01-03T21:46:39.293Z,3.06805
2023-01-03T21:51:40.258Z,3.12329
2023-01-03T21:56:41.227Z,3.24862
2023-01-03T22:01:47.504Z,3.29287
2023-01-03T22:06:48.684Z,3.30321
2023-01-03T22:11:49.651Z,3.36329
2023-01-03T22:16:50.729Z,3.4098
2023-01-03T22:21:51.734Z,3.4954
2023-01-03T22:26:52.713Z,3.56873
2023-01-03T22:31:53.783Z,3.59166
2023-01-03T22:36:54.812Z,3.55936
2023-01-03T22:41:56.047Z,3.51769
2023-01-03T22:46:56.995Z,3.42143
2023-01-03T22:51:58.066Z,3.43403
2023-01-03T22:56:59.106Z,3.46536
2023-01-03T23:02:00.263Z,3.42854
2023-01-03T23:07:01.364Z,3.32549
2023-01-03T23:12:02.383Z,3.25023
2023-01-03T23:17:03.427Z,3.18951
2023-01-03T23:22:04.401Z,3.17303
2023-01-03T23:27:05.397Z,3.14073
2023-01-03T23:32:06.314Z,3.07225
2023-01-03T23:37:07.301Z,3.04221
2023-01-03T23:42:08.210Z,2.92916
2023-01-03T23:47:12.158Z,2.88652
2023-01-03T23:52:13.768Z,2.83064
2023-01-03T23:57:14.793Z,2.78218
